Time;durP1;ratioP1;P1;durP2;ratioP2;P2;SDS_P1;SDS_P2;PMS_P1;PMS_P2;Temp;Humidity;BMP_temperature;BMP_pressure;BME280_temperature;BME280_humidity;BME280_pressure;Samples;Min_cycle;Max_cycle;Signal;HPM_P1;HPM_P2
2022/12/24 00:00:02;;;;;;;6.93;2.50;;;;;;;;;;5087568;28;20289;-85
2022/12/24 00:02:31;;;;;;;13.83;3.27;;;;;;;;;;5094652;28;20321;-86
2022/12/24 00:04:58;;;;;;;14.33;3.70;;;;;;;;;;5103153;28;20229;-86
2022/12/24 00:07:25;;;;;;;12.53;3.03;;;;;;;;;;5076158;28;20267;-85
2022/12/24 00:09:52;;;;;;;12.73;3.20;;;;;;;;;;5086529;28;20286;-85
2022/12/24 00:12:20;;;;;;;12.37;3.10;;;;;;;;;;5092108;27;20297;-86
2022/12/24 00:14:47;;;;;;;14.23;2.90;;;;;;;;;;5083983;28;20240;-85
2022/12/24 00:17:14;;;;;;;14.73;3.30;;;;;;;;;;5086006;28;20202;-86
2022/12/24 00:19:43;;;;;;;11.70;3.00;;;;;;;;;;5086641;28;20202;-87
2022/12/24 00:22:11;;;;;;;14.83;3.13;;;;;;;;;;5078928;28;20201;-85
2022/12/24 00:24:38;;;;;;;13.93;3.57;;;;;;;;;;5075374;28;20305;-85
2022/12/24 00:27:05;;;;;;;13.77;3.20;;;;;;;;;;5091042;28;20248;-88
2022/12/24 00:29:32;;;;;;;14.23;3.47;;;;;;;;;;5089014;28;20209;-85
2022/12/24 00:32:00;;;;;;;14.73;3.00;;;;;;;;;;5090867;28;20212;-85
2022/12/24 00:34:28;;;;;;;17.50;3.07;;;;;;;;;;5078671;28;20337;-86
2022/12/24 00:36:56;;;;;;;13.57;3.03;;;;;;;;;;5110684;28;20225;-86
2022/12/24 00:39:23;;;;;;;13.63;3.00;;;;;;;;;;5084295;28;20209;-85
2022/12/24 00:41:51;;;;;;;14.33;3.03;;;;;;;;;;5098132;28;20204;-85
2022/12/24 00:44:18;;;;;;;11.53;3.13;;;;;;;;;;5094770;28;20212;-85
2022/12/24 00:46:46;;;;;;;12.33;3.23;;;;;;;;;;5090468;28;20210;-85
2022/12/24 00:49:13;;;;;;;12.67;2.80;;;;;;;;;;5096805;28;20232;-85
2022/12/24 00:51:40;;;;;;;16.37;2.77;;;;;;;;;;5087407;28;20199;-86
2022/12/24 00:54:10;;;;;;;11.97;3.10;;;;;;;;;;5087696;28;20202;-85
2022/12/24 00:56:37;;;;;;;13.27;3.00;;;;;;;;;;5087002;28;20206;-85
2022/12/24 00:59:04;;;;;;;13.43;3.40;;;;;;;;;;5087867;28;20277;-85
2022/12/24 01:01:50;;;;;;;17.07;3.47;;;;;;;;;;5079544;28;20284;-86
2022/12/24 01:07:10;;;;;;;8.83;2.67;;;;;;;;;;5029747;28;20210;-84
2022/12/24 01:09:39;;;;;;;13.47;3.00;;;;;;;;;;5096724;28;20619;-85
2022/12/24 01:12:06;;;;;;;11.60;3.33;;;;;;;;;;5085461;28;20282;-85
2022/12/24 01:14:34;;;;;;;12.83;2.97;;;;;;;;;;5081819;28;20252;-86
2022/12/24 01:17:01;;;;;;;12.37;3.03;;;;;;;;;;5082964;28;20235;-85
2022/12/24 01:19:28;;;;;;;12.93;3.07;;;;;;;;;;5074692;28;20291;-85
2022/12/24 01:21:55;;;;;;;15.30;2.90;;;;;;;;;;5094177;28;20229;-85
2022/12/24 01:24:23;;;;;;;13.43;2.87;;;;;;;;;;5083288;28;20248;-85
2022/12/24 01:26:51;;;;;;;16.13;3.27;;;;;;;;;;5086266;28;20285;-85
2022/12/24 01:29:19;;;;;;;15.53;2.80;;;;;;;;;;5081014;28;20206;-85
2022/12/24 01:31:46;;;;;;;15.43;3.13;;;;;;;;;;5091109;28;20217;-85
2022/12/24 01:34:13;;;;;;;16.67;3.43;;;;;;;;;;5098906;28;20293;-85
2022/12/24 01:36:40;;;;;;;9.33;2.90;;;;;;;;;;5087560;28;20297;-85
2022/12/24 01:39:07;;;;;;;13.13;2.77;;;;;;;;;;5075271;28;20281;-85
2022/12/24 01:44:25;;;;;;;9.07;2.93;;;;;;;;;;5075706;28;20209;-86
2022/12/24 01:46:54;;;;;;;16.87;3.57;;;;;;;;;;5077472;28;20294;-84
2022/12/24 01:49:21;;;;;;;15.53;3.27;;;;;;;;;;5093245;28;20208;-84
2022/12/24 01:51:49;;;;;;;13.90;3.23;;;;;;;;;;5086356;28;20456;-85
2022/12/24 01:54:18;;;;;;;14.37;2.90;;;;;;;;;;5079577;28;20266;-85
2022/12/24 01:56:46;;;;;;;12.43;2.93;;;;;;;;;;5076084;28;20285;-85
2022/12/24 01:59:15;;;;;;;13.03;3.30;;;;;;;;;;5074297;28;20254;-85
2022/12/24 02:01:44;;;;;;;12.50;2.60;;;;;;;;;;5085880;28;20253;-85
2022/12/24 02:04:14;;;;;;;17.80;3.27;;;;;;;;;;5087814;28;20296;-85
2022/12/24 02:06:41;;;;;;;12.97;3.03;;;;;;;;;;5083253;28;20289;-84
2022/12/24 02:09:08;;;;;;;14.37;3.13;;;;;;;;;;5079471;28;20259;-85
2022/12/24 02:11:37;;;;;;;12.53;2.73;;;;;;;;;;5091927;28;20194;-86
2022/12/24 02:14:05;;;;;;;14.43;3.30;;;;;;;;;;5074155;28;20205;-84
2022/12/24 02:16:37;;;;;;;11.07;3.07;;;;;;;;;;5088519;28;20213;-85
2022/12/24 02:19:16;;;;;;;12.70;2.63;;;;;;;;;;5081894;28;20281;-87
2022/12/24 02:21:55;;;;;;;14.37;3.60;;;;;;;;;;5081563;28;20226;-85
2022/12/24 02:24:38;;;;;;;12.93;2.97;;;;;;;;;;5094293;28;20208;-85
2022/12/24 02:27:12;;;;;;;17.43;3.33;;;;;;;;;;5090852;28;20266;-85
2022/12/24 02:29:56;;;;;;;16.73;3.43;;;;;;;;;;5097104;28;20212;-84
2022/12/24 02:32:25;;;;;;;14.37;2.80;;;;;;;;;;5087614;28;20300;-85
2022/12/24 02:34:55;;;;;;;14.23;3.03;;;;;;;;;;5085149;28;20206;-84
2022/12/24 02:37:24;;;;;;;11.80;3.47;;;;;;;;;;5088453;28;20207;-85
2022/12/24 02:39:53;;;;;;;11.37;3.13;;;;;;;;;;5086681;28;20259;-85
2022/12/24 02:42:23;;;;;;;16.03;4.00;;;;;;;;;;5090556;28;20216;-85
2022/12/24 02:44:54;;;;;;;13.90;3.00;;;;;;;;;;5081508;28;20281;-84
2022/12/24 02:47:23;;;;;;;11.80;3.03;;;;;;;;;;5080451;28;20209;-85
2022/12/24 02:49:50;;;;;;;12.83;3.67;;;;;;;;;;5087654;28;20274;-84
2022/12/24 02:52:34;;;;;;;15.03;3.10;;;;;;;;;;5099780;28;20206;-85
2022/12/24 02:55:03;;;;;;;14.77;3.13;;;;;;;;;;5080896;28;20222;-86
2022/12/24 02:57:39;;;;;;;11.83;2.73;;;;;;;;;;5091985;28;20239;-84
2022/12/24 03:00:09;;;;;;;13.07;3.33;;;;;;;;;;5084127;28;20222;-85
2022/12/24 03:02:51;;;;;;;13.40;3.17;;;;;;;;;;5082441;28;20230;-86
2022/12/24 03:05:21;;;;;;;13.10;2.90;;;;;;;;;;5090809;28;20312;-85
2022/12/24 03:07:59;;;;;;;15.27;3.23;;;;;;;;;;5076585;28;20210;-84
2022/12/24 03:10:29;;;;;;;13.70;3.17;;;;;;;;;;5091678;28;20265;-84
2022/12/24 03:12:57;;;;;;;10.00;3.13;;;;;;;;;;5078489;28;20217;-87
2022/12/24 03:15:26;;;;;;;12.20;3.13;;;;;;;;;;5083941;28;20207;-84
2022/12/24 03:17:56;;;;;;;10.87;2.90;;;;;;;;;;5080364;28;20281;-84
2022/12/24 03:20:34;;;;;;;15.03;3.03;;;;;;;;;;5091819;28;20205;-85
2022/12/24 03:23:01;;;;;;;10.47;3.00;;;;;;;;;;5078503;28;20226;-85
2022/12/24 03:25:29;;;;;;;11.87;3.00;;;;;;;;;;5099998;28;20274;-85
2022/12/24 03:27:57;;;;;;;11.23;2.90;;;;;;;;;;5075656;28;20202;-84
2022/12/24 03:30:26;;;;;;;14.07;3.43;;;;;;;;;;5090466;28;20198;-84
2022/12/24 03:32:54;;;;;;;13.47;3.70;;;;;;;;;;5074864;28;20285;-85
2022/12/24 03:35:21;;;;;;;12.77;3.13;;;;;;;;;;5074532;28;20203;-88
2022/12/24 03:37:48;;;;;;;13.80;3.30;;;;;;;;;;5075838;28;20345;-86
2022/12/24 03:40:16;;;;;;;12.83;3.00;;;;;;;;;;5075596;28;20264;-85
2022/12/24 03:42:43;;;;;;;17.07;3.80;;;;;;;;;;5074663;28;20234;-88
2022/12/24 03:45:11;;;;;;;17.50;3.67;;;;;;;;;;5091431;28;20198;-84
2022/12/24 03:47:40;;;;;;;14.47;3.03;;;;;;;;;;5075888;28;20264;-84
2022/12/24 03:50:08;;;;;;;13.60;3.23;;;;;;;;;;5091805;28;20202;-84
2022/12/24 03:52:35;;;;;;;14.97;3.40;;;;;;;;;;5083294;28;20194;-84
2022/12/24 03:55:02;;;;;;;15.30;3.50;;;;;;;;;;5079577;28;20203;-84
2022/12/24 03:57:29;;;;;;;17.43;3.90;;;;;;;;;;5088091;28;20214;-85
2022/12/24 03:59:57;;;;;;;14.73;3.53;;;;;;;;;;5089607;28;20283;-84
2022/12/24 04:02:25;;;;;;;15.67;3.57;;;;;;;;;;5094843;28;20208;-84
2022/12/24 04:04:54;;;;;;;19.43;3.97;;;;;;;;;;5086929;28;20297;-84
2022/12/24 04:07:22;;;;;;;13.10;3.50;;;;;;;;;;5089528;28;20312;-84
2022/12/24 04:09:49;;;;;;;14.03;3.80;;;;;;;;;;5090177;28;20214;-84
2022/12/24 04:12:16;;;;;;;20.10;3.67;;;;;;;;;;5091786;28;20255;-86
2022/12/24 04:14:44;;;;;;;18.13;4.07;;;;;;;;;;5104332;28;20285;-84
2022/12/24 04:17:11;;;;;;;18.23;3.73;;;;;;;;;;5086014;28;20204;-88
2022/12/24 04:19:39;;;;;;;17.33;4.00;;;;;;;;;;5096507;28;20270;-84
2022/12/24 04:22:08;;;;;;;20.70;3.93;;;;;;;;;;5088756;28;20286;-83
2022/12/24 04:24:35;;;;;;;18.20;4.00;;;;;;;;;;5087371;28;20280;-84
2022/12/24 04:27:02;;;;;;;18.63;3.67;;;;;;;;;;5090626;28;20218;-85
2022/12/24 04:29:29;;;;;;;17.00;3.63;;;;;;;;;;5087062;28;20204;-84
2022/12/24 04:31:57;;;;;;;20.30;3.97;;;;;;;;;;5092828;28;20210;-84
2022/12/24 04:34:24;;;;;;;20.47;4.43;;;;;;;;;;5085167;28;20262;-84
2022/12/24 04:36:51;;;;;;;16.37;4.03;;;;;;;;;;5085861;28;20203;-89
2022/12/24 04:39:20;;;;;;;17.07;4.47;;;;;;;;;;5087995;28;20286;-84
2022/12/24 04:41:47;;;;;;;18.53;4.97;;;;;;;;;;5079840;28;20281;-84
2022/12/24 04:44:14;;;;;;;20.40;4.17;;;;;;;;;;5081243;28;20280;-86
2022/12/24 04:46:42;;;;;;;19.30;4.17;;;;;;;;;;5087493;28;20313;-84
2022/12/24 04:49:09;;;;;;;19.70;4.30;;;;;;;;;;5091089;28;20203;-84
2022/12/24 04:51:36;;;;;;;16.50;4.07;;;;;;;;;;5094520;28;20225;-85
2022/12/24 04:54:10;;;;;;;18.80;3.60;;;;;;;;;;5081901;28;20199;-84
2022/12/24 04:56:39;;;;;;;20.20;4.40;;;;;;;;;;5079998;28;20232;-85
2022/12/24 04:59:06;;;;;;;24.77;4.67;;;;;;;;;;5074675;28;20288;-85
2022/12/24 05:01:33;;;;;;;22.57;4.63;;;;;;;;;;5088507;28;20202;-86
2022/12/24 05:04:00;;;;;;;21.30;4.37;;;;;;;;;;5078667;28;20250;-85
2022/12/24 05:06:29;;;;;;;17.63;4.07;;;;;;;;;;5080269;28;20313;-86
2022/12/24 05:08:57;;;;;;;19.60;4.37;;;;;;;;;;5092280;28;20202;-84
2022/12/24 05:11:25;;;;;;;23.33;4.40;;;;;;;;;;5093925;28;20205;-85
2022/12/24 05:13:54;;;;;;;20.77;4.30;;;;;;;;;;5108011;28;20197;-90
2022/12/24 05:16:23;;;;;;;23.27;4.60;;;;;;;;;;5083288;28;20263;-85
2022/12/24 05:18:50;;;;;;;18.70;3.97;;;;;;;;;;5092384;28;20228;-86
2022/12/24 05:21:19;;;;;;;21.63;5.00;;;;;;;;;;5090904;28;20236;-86
2022/12/24 05:26:33;;;;;;;18.13;3.80;;;;;;;;;;5081970;28;20300;-85
2022/12/24 05:29:14;;;;;;;18.47;4.20;;;;;;;;;;5092808;28;20212;-88
2022/12/24 05:31:42;;;;;;;25.37;5.07;;;;;;;;;;5081276;28;20230;-86
2022/12/24 05:34:10;;;;;;;26.20;4.50;;;;;;;;;;5092428;28;20198;-86
2022/12/24 05:36:37;;;;;;;19.07;3.97;;;;;;;;;;5095550;28;20230;-85
2022/12/24 05:39:05;;;;;;;25.07;4.80;;;;;;;;;;5075297;28;20256;-85
2022/12/24 05:41:32;;;;;;;21.97;4.57;;;;;;;;;;5088405;28;20277;-85
2022/12/24 05:43:59;;;;;;;23.23;4.53;;;;;;;;;;5089480;28;20244;-85
2022/12/24 05:46:28;;;;;;;22.17;4.13;;;;;;;;;;5080296;28;20226;-85
2022/12/24 05:48:55;;;;;;;25.33;4.50;;;;;;;;;;5077827;28;20262;-86
2022/12/24 05:51:23;;;;;;;20.80;4.67;;;;;;;;;;5080116;28;20302;-86
2022/12/24 05:53:51;;;;;;;24.40;4.43;;;;;;;;;;5081908;28;20207;-86
2022/12/24 05:56:19;;;;;;;25.40;5.63;;;;;;;;;;5085312;28;20198;-86
2022/12/24 05:58:46;;;;;;;21.10;4.33;;;;;;;;;;5076839;28;20206;-86
2022/12/24 06:01:14;;;;;;;30.70;4.60;;;;;;;;;;5088797;28;20308;-87
2022/12/24 06:03:42;;;;;;;20.27;4.30;;;;;;;;;;5083781;28;20231;-87
2022/12/24 06:06:11;;;;;;;23.17;5.03;;;;;;;;;;5108998;28;20314;-87
2022/12/24 06:08:39;;;;;;;21.00;4.97;;;;;;;;;;5085137;28;20206;-87
2022/12/24 06:11:07;;;;;;;22.33;4.47;;;;;;;;;;5105026;28;20206;-86
2022/12/24 06:13:34;;;;;;;21.17;4.30;;;;;;;;;;5092795;28;20231;-85
2022/12/24 06:16:03;;;;;;;25.27;4.80;;;;;;;;;;5101155;28;20202;-85
2022/12/24 06:18:31;;;;;;;20.90;4.70;;;;;;;;;;5087527;28;20224;-86
2022/12/24 06:21:00;;;;;;;22.77;3.97;;;;;;;;;;5080951;28;20206;-84
2022/12/24 06:23:31;;;;;;;21.80;4.87;;;;;;;;;;5083569;28;20289;-87
2022/12/24 06:25:59;;;;;;;21.20;5.10;;;;;;;;;;5082117;28;20228;-84
2022/12/24 06:28:27;;;;;;;23.67;4.80;;;;;;;;;;5088897;28;20212;-85
2022/12/24 06:30:54;;;;;;;20.60;4.97;;;;;;;;;;5081077;28;20260;-85
2022/12/24 06:33:21;;;;;;;28.37;5.17;;;;;;;;;;5081763;28;20293;-84
2022/12/24 06:35:49;;;;;;;20.10;4.10;;;;;;;;;;5085435;28;20281;-84
2022/12/24 06:38:17;;;;;;;22.57;4.33;;;;;;;;;;5091861;28;20252;-86
2022/12/24 06:40:45;;;;;;;24.17;4.27;;;;;;;;;;5084509;28;20262;-83
2022/12/24 06:43:13;;;;;;;19.50;4.50;;;;;;;;;;5094366;28;20281;-84
2022/12/24 06:45:40;;;;;;;21.77;4.90;;;;;;;;;;5079598;28;20203;-85
2022/12/24 06:48:07;;;;;;;25.37;4.80;;;;;;;;;;5083813;28;20222;-85
2022/12/24 06:50:34;;;;;;;30.20;5.20;;;;;;;;;;5076847;28;20303;-86
2022/12/24 06:53:02;;;;;;;23.27;4.80;;;;;;;;;;5084392;28;20208;-85
2022/12/24 06:55:30;;;;;;;24.53;4.83;;;;;;;;;;5082424;28;20202;-86
2022/12/24 06:57:58;;;;;;;25.70;4.67;;;;;;;;;;5086561;28;20234;-85
2022/12/24 07:00:25;;;;;;;20.60;4.77;;;;;;;;;;5077418;28;20206;-85
2022/12/24 07:02:52;;;;;;;24.13;4.97;;;;;;;;;;5081185;28;20279;-85
2022/12/24 07:05:19;;;;;;;29.13;4.80;;;;;;;;;;5078789;28;20287;-85
2022/12/24 07:07:47;;;;;;;21.53;4.27;;;;;;;;;;5080416;28;20222;-85
2022/12/24 07:10:15;;;;;;;20.40;4.97;;;;;;;;;;5090333;28;20200;-84
2022/12/24 07:12:44;;;;;;;25.93;4.57;;;;;;;;;;5092872;28;20210;-86
2022/12/24 07:15:12;;;;;;;23.17;4.67;;;;;;;;;;5085182;28;20339;-84
2022/12/24 07:17:39;;;;;;;20.93;4.80;;;;;;;;;;5086122;28;20286;-89
2022/12/24 07:20:08;;;;;;;24.70;4.33;;;;;;;;;;5086740;28;20199;-86
2022/12/24 07:22:35;;;;;;;24.87;4.67;;;;;;;;;;5085295;28;20206;-88
2022/12/24 07:25:02;;;;;;;25.20;5.57;;;;;;;;;;5085498;28;20285;-87
2022/12/24 07:27:30;;;;;;;17.07;4.97;;;;;;;;;;5078534;28;20256;-87
2022/12/24 07:29:59;;;;;;;26.40;5.23;;;;;;;;;;5081886;28;20270;-87
2022/12/24 07:32:26;;;;;;;23.53;5.27;;;;;;;;;;5080562;28;20233;-89
2022/12/24 07:34:54;;;;;;;24.07;6.63;;;;;;;;;;5086210;28;20282;-91
2022/12/24 07:37:21;;;;;;;25.63;6.10;;;;;;;;;;5082566;28;20253;-86
2022/12/24 07:39:48;;;;;;;22.87;6.57;;;;;;;;;;5079374;28;20202;-84
2022/12/24 07:42:16;;;;;;;27.73;7.97;;;;;;;;;;5086503;28;20205;-84
2022/12/24 07:44:43;;;;;;;22.43;5.70;;;;;;;;;;5086407;28;20283;-84
2022/12/24 07:47:12;;;;;;;21.90;5.07;;;;;;;;;;5091640;28;20222;-84
2022/12/24 07:49:39;;;;;;;24.43;5.90;;;;;;;;;;5095704;28;20222;-85
2022/12/24 07:52:07;;;;;;;27.63;5.27;;;;;;;;;;5086908;28;20301;-85
2022/12/24 07:54:34;;;;;;;19.60;4.80;;;;;;;;;;5080063;28;20195;-88
2022/12/24 07:57:01;;;;;;;26.93;4.90;;;;;;;;;;5086166;28;20216;-85
2022/12/24 07:59:29;;;;;;;24.50;4.80;;;;;;;;;;5088229;28;20266;-84
2022/12/24 08:01:56;;;;;;;21.97;4.47;;;;;;;;;;5086574;28;20218;-85
2022/12/24 08:04:25;;;;;;;27.67;6.27;;;;;;;;;;5092000;28;20233;-85
2022/12/24 08:06:53;;;;;;;27.70;5.00;;;;;;;;;;5089996;28;20232;-86
2022/12/24 08:09:20;;;;;;;23.10;4.57;;;;;;;;;;5080205;28;20209;-86
2022/12/24 08:11:47;;;;;;;23.33;4.67;;;;;;;;;;5079046;28;20293;-91
2022/12/24 08:14:15;;;;;;;24.50;4.73;;;;;;;;;;5082461;28;20222;-82
2022/12/24 08:16:42;;;;;;;26.80;4.73;;;;;;;;;;5083468;28;20225;-88
2022/12/24 08:19:09;;;;;;;22.40;4.97;;;;;;;;;;5081624;28;20204;-84
2022/12/24 08:21:38;;;;;;;24.10;5.00;;;;;;;;;;5086853;28;20213;-83
2022/12/24 08:24:06;;;;;;;25.40;5.50;;;;;;;;;;5091514;28;20289;-84
2022/12/24 08:26:33;;;;;;;24.20;5.03;;;;;;;;;;5076475;28;20205;-88
2022/12/24 08:29:01;;;;;;;24.47;4.70;;;;;;;;;;5094516;28;20199;-84
2022/12/24 08:31:28;;;;;;;22.87;5.33;;;;;;;;;;5084239;28;20202;-85
2022/12/24 08:33:55;;;;;;;30.20;5.10;;;;;;;;;;5087374;28;20206;-84
2022/12/24 08:36:23;;;;;;;26.77;5.63;;;;;;;;;;5086445;28;20278;-87
2022/12/24 08:38:51;;;;;;;25.83;5.10;;;;;;;;;;5077283;28;20263;-85
2022/12/24 08:41:19;;;;;;;25.10;4.97;;;;;;;;;;5075770;28;20195;-85
2022/12/24 08:43:46;;;;;;;18.53;4.50;;;;;;;;;;5083339;28;20205;-87
2022/12/24 08:46:13;;;;;;;23.47;4.90;;;;;;;;;;5077826;28;20277;-86
2022/12/24 08:48:41;;;;;;;24.07;4.80;;;;;;;;;;5087068;28;20288;-86
2022/12/24 08:51:08;;;;;;;25.87;4.80;;;;;;;;;;5079346;28;20202;-83
2022/12/24 08:53:36;;;;;;;24.03;5.23;;;;;;;;;;5090121;28;20221;-83
2022/12/24 08:56:05;;;;;;;26.57;5.10;;;;;;;;;;5084142;28;20211;-84
2022/12/24 08:58:33;;;;;;;24.43;5.00;;;;;;;;;;5080186;28;20297;-83
2022/12/24 09:01:00;;;;;;;22.80;4.90;;;;;;;;;;5074512;28;20262;-84
2022/12/24 09:03:28;;;;;;;26.40;4.80;;;;;;;;;;5094329;27;20320;-84
2022/12/24 09:05:55;;;;;;;21.07;4.87;;;;;;;;;;5094296;28;20289;-86
2022/12/24 09:08:22;;;;;;;20.33;4.57;;;;;;;;;;5104569;27;20296;-91
2022/12/24 09:10:50;;;;;;;25.43;4.93;;;;;;;;;;5109671;28;20261;-85
2022/12/24 09:13:18;;;;;;;24.53;5.07;;;;;;;;;;5101886;28;20229;-86
2022/12/24 09:15:53;;;;;;;23.57;5.27;;;;;;;;;;5094922;28;20286;-86
2022/12/24 09:18:20;;;;;;;27.53;4.90;;;;;;;;;;5093226;28;20201;-86
2022/12/24 09:20:47;;;;;;;27.97;5.40;;;;;;;;;;5107469;28;20266;-87
2022/12/24 09:23:15;;;;;;;25.90;5.00;;;;;;;;;;5098752;28;20221;-88
2022/12/24 09:25:42;;;;;;;26.93;5.00;;;;;;;;;;5094437;28;20206;-86
2022/12/24 09:28:09;;;;;;;24.80;5.30;;;;;;;;;;5096912;28;20248;-85
2022/12/24 09:30:38;;;;;;;25.20;6.80;;;;;;;;;;5095156;28;20277;-85
2022/12/24 09:33:05;;;;;;;26.17;5.60;;;;;;;;;;5100845;28;20207;-86
2022/12/24 09:35:33;;;;;;;29.00;5.57;;;;;;;;;;5101094;28;20224;-87
2022/12/24 09:38:02;;;;;;;23.30;5.50;;;;;;;;;;5101310;28;20231;-87
2022/12/24 09:40:33;;;;;;;33.10;5.33;;;;;;;;;;5106533;27;20206;-87
2022/12/24 09:43:01;;;;;;;27.83;4.63;;;;;;;;;;5097967;28;20198;-86
2022/12/24 09:45:30;;;;;;;31.60;5.60;;;;;;;;;;5112707;27;20276;-86
2022/12/24 09:48:00;;;;;;;32.37;5.60;;;;;;;;;;5098383;28;20313;-87
2022/12/24 09:50:31;;;;;;;29.20;5.67;;;;;;;;;;5105609;28;20265;-87
2022/12/24 09:52:59;;;;;;;25.40;5.57;;;;;;;;;;5107541;28;20198;-86
2022/12/24 09:55:28;;;;;;;25.83;5.13;;;;;;;;;;5107713;28;20304;-85
2022/12/24 09:57:57;;;;;;;24.23;5.43;;;;;;;;;;5102799;28;20208;-85
2022/12/24 10:00:26;;;;;;;23.73;5.47;;;;;;;;;;5136181;27;20235;-85
2022/12/24 10:02:53;;;;;;;25.33;5.50;;;;;;;;;;5128092;27;20218;-84
2022/12/24 10:05:27;;;;;;;21.30;5.33;;;;;;;;;;5122001;27;20189;-86
2022/12/24 10:07:59;;;;;;;23.23;5.23;;;;;;;;;;5105162;28;20214;-85
2022/12/24 10:10:28;;;;;;;20.60;4.80;;;;;;;;;;5101831;28;20197;-85
2022/12/24 10:13:00;;;;;;;25.37;5.20;;;;;;;;;;5102081;28;20194;-85
2022/12/24 10:15:29;;;;;;;24.70;5.07;;;;;;;;;;5103103;28;20263;-86
2022/12/24 10:18:09;;;;;;;20.53;4.43;;;;;;;;;;5099821;28;20293;-87
2022/12/24 10:20:43;;;;;;;23.77;5.00;;;;;;;;;;5104871;28;20299;-85
2022/12/24 10:23:15;;;;;;;21.03;4.97;;;;;;;;;;5098695;28;20197;-85
2022/12/24 10:25:44;;;;;;;26.70;5.17;;;;;;;;;;5100780;28;20290;-85
2022/12/24 10:28:15;;;;;;;21.93;4.57;;;;;;;;;;5097863;28;20214;-85
2022/12/24 10:30:43;;;;;;;22.00;4.80;;;;;;;;;;5112620;28;20289;-84
2022/12/24 10:33:15;;;;;;;22.77;4.97;;;;;;;;;;5096255;28;20229;-89
2022/12/24 10:35:47;;;;;;;22.10;4.57;;;;;;;;;;5105501;28;20206;-85
2022/12/24 10:38:31;;;;;;;24.47;5.50;;;;;;;;;;5094533;28;20289;-85
2022/12/24 10:41:00;;;;;;;23.00;5.57;;;;;;;;;;5094655;28;20202;-84
2022/12/24 10:43:29;;;;;;;23.47;5.77;;;;;;;;;;5094179;28;20218;-86
2022/12/24 10:45:58;;;;;;;27.53;5.63;;;;;;;;;;5106397;27;20189;-83
2022/12/24 10:48:28;;;;;;;26.53;5.97;;;;;;;;;;5099149;28;20234;-90
2022/12/24 10:51:00;;;;;;;25.23;5.00;;;;;;;;;;5102377;28;20209;-86
2022/12/24 10:53:33;;;;;;;22.87;5.20;;;;;;;;;;5113758;27;20285;-87
2022/12/24 10:56:05;;;;;;;23.02;5.75;;;;;;;;;;5108863;28;20241;-89
2022/12/24 10:58:32;;;;;;;28.05;5.95;;;;;;;;;;5105004;28;20225;-87
2022/12/24 11:00:59;;;;;;;26.23;5.60;;;;;;;;;;5108629;27;20220;-88
2022/12/24 11:03:30;;;;;;;26.33;6.33;;;;;;;;;;5108443;28;20303;-86
2022/12/24 11:06:02;;;;;;;24.07;5.00;;;;;;;;;;5116143;27;20201;-88
2022/12/24 11:08:29;;;;;;;25.30;5.47;;;;;;;;;;5109537;27;20296;-88
2022/12/24 11:10:58;;;;;;;26.67;6.10;;;;;;;;;;5108638;27;20220;-87
2022/12/24 11:13:27;;;;;;;21.43;4.97;;;;;;;;;;5113549;28;20224;-89
2022/12/24 11:16:02;;;;;;;27.17;5.00;;;;;;;;;;5087292;27;20190;-93
2022/12/24 11:18:29;;;;;;;23.17;5.17;;;;;;;;;;5107132;28;20216;-87
2022/12/24 11:20:59;;;;;;;31.60;5.80;;;;;;;;;;5111814;28;20281;-86
2022/12/24 11:23:28;;;;;;;33.57;8.30;;;;;;;;;;5112024;28;20204;-87
2022/12/24 11:25:56;;;;;;;27.63;5.97;;;;;;;;;;5111677;28;20202;-88
2022/12/24 11:28:25;;;;;;;32.63;8.47;;;;;;;;;;5101880;28;20220;-89
2022/12/24 11:31:03;;;;;;;28.97;7.00;;;;;;;;;;5106664;27;20226;-88
2022/12/24 11:33:30;;;;;;;24.37;5.53;;;;;;;;;;5110051;27;20216;-87
2022/12/24 11:36:02;;;;;;;17.07;4.20;;;;;;;;;;5109793;27;20197;-87
2022/12/24 11:38:32;;;;;;;23.93;4.17;;;;;;;;;;5116508;28;20205;-87
2022/12/24 11:41:01;;;;;;;22.23;4.30;;;;;;;;;;5117075;27;20198;-87
2022/12/24 11:43:43;;;;;;;22.20;7.55;;;;;;;;;;5087964;28;20292;-87
2022/12/24 11:46:20;;;;;;;18.73;4.83;;;;;;;;;;5107182;28;20202;-87
2022/12/24 11:48:48;;;;;;;21.47;4.47;;;;;;;;;;5115476;27;20224;-86
2022/12/24 11:51:23;;;;;;;18.50;3.63;;;;;;;;;;5101258;28;20210;-87
2022/12/24 11:53:53;;;;;;;22.07;4.77;;;;;;;;;;5103574;28;20276;-87
2022/12/24 11:56:28;;;;;;;18.33;4.50;;;;;;;;;;5114349;27;20201;-87
2022/12/24 11:58:57;;;;;;;17.53;4.60;;;;;;;;;;5108361;27;20201;-89
2022/12/24 12:01:26;;;;;;;20.67;4.50;;;;;;;;;;5103335;27;20238;-86
2022/12/24 12:03:55;;;;;;;18.85;4.00;;;;;;;;;;5104297;28;20233;-87
2022/12/24 12:06:28;;;;;;;17.73;3.77;;;;;;;;;;5105892;27;20212;-85
2022/12/24 12:08:57;;;;;;;18.23;4.53;;;;;;;;;;5110832;27;20217;-86
2022/12/24 12:11:26;;;;;;;16.27;4.13;;;;;;;;;;5111635;27;20205;-88
2022/12/24 12:13:54;;;;;;;18.70;4.40;;;;;;;;;;5109897;28;20209;-87
2022/12/24 12:16:24;;;;;;;15.27;4.20;;;;;;;;;;5111636;27;20225;-87
2022/12/24 12:18:54;;;;;;;17.77;4.05;;;;;;;;;;5109375;27;20296;-88
2022/12/24 12:21:24;;;;;;;18.13;4.13;;;;;;;;;;5103562;27;20230;-87
2022/12/24 12:23:53;;;;;;;19.38;4.50;;;;;;;;;;5102985;28;20202;-87
2022/12/24 12:26:23;;;;;;;15.60;4.22;;;;;;;;;;5112153;27;20190;-87
2022/12/24 12:28:55;;;;;;;16.90;4.22;;;;;;;;;;5100396;27;20217;-87
2022/12/24 12:31:24;;;;;;;12.77;3.75;;;;;;;;;;5105107;27;20205;-87
2022/12/24 12:33:54;;;;;;;16.95;4.53;;;;;;;;;;5107522;27;20202;-86
2022/12/24 12:36:24;;;;;;;15.67;3.37;;;;;;;;;;5106447;27;20215;-86
2022/12/24 12:38:51;;;;;;;16.33;3.42;;;;;;;;;;5104760;28;20201;-87
2022/12/24 12:41:27;;;;;;;16.97;4.57;;;;;;;;;;5097165;28;20206;-86
2022/12/24 12:44:19;;;;;;;12.77;3.90;;;;;;;;;;5095597;28;20202;-89
2022/12/24 12:46:55;;;;;;;10.07;3.30;;;;;;;;;;5034151;28;20299;-85
2022/12/24 12:49:30;;;;;;;15.13;3.40;;;;;;;;;;5104965;28;20264;-86
2022/12/24 12:52:00;;;;;;;17.10;4.22;;;;;;;;;;5105740;28;20192;-86
2022/12/24 12:54:33;;;;;;;14.27;3.57;;;;;;;;;;5117728;27;20284;-86
2022/12/24 12:57:05;;;;;;;17.23;3.77;;;;;;;;;;5112954;27;20216;-86
2022/12/24 12:59:34;;;;;;;16.42;3.75;;;;;;;;;;5105497;27;20212;-86
2022/12/24 13:02:09;;;;;;;18.90;3.83;;;;;;;;;;5102978;27;20251;-86
2022/12/24 13:04:54;;;;;;;18.02;4.10;;;;;;;;;;5097793;28;20235;-85
2022/12/24 13:07:38;;;;;;;16.47;4.10;;;;;;;;;;5104429;27;20200;-85
2022/12/24 13:10:11;;;;;;;18.70;4.67;;;;;;;;;;5099011;28;20250;-86
2022/12/24 13:12:54;;;;;;;16.80;4.17;;;;;;;;;;5105989;27;20198;-85
2022/12/24 13:15:39;;;;;;;19.67;4.20;;;;;;;;;;5093705;28;20197;-85
2022/12/24 13:18:20;;;;;;;18.13;4.20;;;;;;;;;;5105053;28;20288;-84
2022/12/24 13:20:50;;;;;;;20.67;5.20;;;;;;;;;;5124362;27;20208;-86
2022/12/24 13:23:19;;;;;;;21.67;4.67;;;;;;;;;;5113227;27;20273;-85
2022/12/24 13:25:47;;;;;;;19.17;4.30;;;;;;;;;;5127716;27;20204;-87
2022/12/24 13:28:15;;;;;;;21.43;4.73;;;;;;;;;;5131367;27;20253;-88
2022/12/24 13:30:43;;;;;;;20.87;4.20;;;;;;;;;;5121463;27;20206;-86
2022/12/24 13:33:11;;;;;;;17.38;4.07;;;;;;;;;;5121268;27;20201;-86
2022/12/24 13:35:58;;;;;;;16.33;3.97;;;;;;;;;;5123804;27;20288;-86
2022/12/24 13:38:43;;;;;;;16.57;3.50;;;;;;;;;;5119316;27;20207;-87
2022/12/24 13:41:29;;;;;;;11.13;3.03;;;;;;;;;;5122029;27;20284;-86
2022/12/24 13:44:03;;;;;;;13.55;3.92;;;;;;;;;;5119287;27;20276;-86
2022/12/24 13:47:04;;;;;;;13.43;2.87;;;;;;;;;;5123869;27;20216;-85
2022/12/24 13:49:33;;;;;;;12.53;3.30;;;;;;;;;;5063967;28;20226;-84
2022/12/24 13:52:21;;;;;;;15.37;3.57;;;;;;;;;;5063013;28;20207;-85
2022/12/24 13:55:01;;;;;;;13.67;3.33;;;;;;;;;;5096351;27;20224;-84
2022/12/24 13:57:34;;;;;;;11.93;3.80;;;;;;;;;;5121976;27;20205;-84
2022/12/24 14:00:03;;;;;;;9.50;2.60;;;;;;;;;;5126566;27;20201;-88
2022/12/24 14:02:33;;;;;;;8.87;2.77;;;;;;;;;;5126296;28;20207;-84
2022/12/24 14:05:02;;;;;;;5.53;2.57;;;;;;;;;;5121060;27;20201;-83
2022/12/24 14:07:30;;;;;;;12.13;2.90;;;;;;;;;;5108632;27;20288;-85
2022/12/24 14:09:59;;;;;;;12.70;3.00;;;;;;;;;;5121843;28;20252;-84
2022/12/24 14:12:35;;;;;;;12.47;3.00;;;;;;;;;;5121408;28;20202;-84
2022/12/24 14:15:17;;;;;;;10.33;3.40;;;;;;;;;;5122657;27;20228;-84
2022/12/24 14:17:48;;;;;;;9.93;3.53;;;;;;;;;;5122852;27;20242;-86
2022/12/24 14:20:16;;;;;;;15.03;4.00;;;;;;;;;;5093252;27;20217;-87
2022/12/24 14:22:46;;;;;;;10.83;3.70;;;;;;;;;;5104820;28;20220;-85
2022/12/24 14:25:16;;;;;;;16.87;3.90;;;;;;;;;;5104702;28;20305;-85
2022/12/24 14:27:45;;;;;;;11.43;3.70;;;;;;;;;;5115282;28;20213;-85
2022/12/24 14:30:18;;;;;;;18.90;4.47;;;;;;;;;;5110061;28;20222;-85
2022/12/24 14:32:45;;;;;;;14.80;4.07;;;;;;;;;;5106841;28;20202;-85
2022/12/24 14:35:17;;;;;;;14.47;4.17;;;;;;;;;;5110534;28;20197;-86
2022/12/24 14:37:46;;;;;;;20.93;4.20;;;;;;;;;;5104672;28;20201;-85
2022/12/24 14:40:17;;;;;;;17.87;4.23;;;;;;;;;;5099066;28;20232;-85
2022/12/24 14:42:50;;;;;;;18.93;4.43;;;;;;;;;;5106600;28;20194;-85
2022/12/24 14:45:25;;;;;;;13.43;3.50;;;;;;;;;;5104916;28;20202;-85
2022/12/24 14:47:56;;;;;;;12.53;3.57;;;;;;;;;;5109556;28;20197;-85
2022/12/24 14:50:30;;;;;;;16.67;4.10;;;;;;;;;;5102933;28;20229;-85
2022/12/24 14:53:01;;;;;;;15.83;4.47;;;;;;;;;;5104669;28;20201;-88